Aérodrome :
LOGIN :

S'inscrire | Disclaimer

   EN    FR    IT 

 










Légende :    VFR   VFR Marginal   IFR   IFR Intensif   IFR Très Intensif
Visi : 
Plafond : 
>= 8 km
>= 3000ft
5 à 8 km
1000 à 3000 ft
1500m à 5 km
500 à 1000 ft
800 à 1500m
200 à 500 ft
< 800m
< 200 ft
Symboles :   Orages  Brouillard  Fortes neiges  Fortes précipitations  Vent > 20 kt
SIGMETs :   Divers  Orages  Givrage  Turbulence  Onde Orograph.  Cendres Volcan.







- Altitude de l'aérodrome : 870 ft
- Code IATA : ETZ
- Voir les cartes d'approche


LFJL - Metz Nancy Lorraine

DERNIER METAR :
  • 241200Z AUTO 21018KT 9999 BKN032 BKN042 BKN050 12/09 Q1012 TEMPO BKN012

METARs EXPIRÉS :
  • 241130Z AUTO 21017KT 9999 FEW030 SCT140 12/09 Q1012 TEMPO BKN012
  • 241100Z AUTO 21016KT 9999 BKN033 OVC046 12/09 Q1011 TEMPO 21012G22KT
  • 241030Z AUTO 21017KT 9999 BKN030 OVC039 12/09 Q1011 TEMPO 21012G22KT
  • 241000Z AUTO 20015KT 9999 BKN032 BKN039 OVC049 12/09 Q1011 TEMPO 21012G22KT
  • 240930Z AUTO 21015KT 9999 FEW028 BKN036 BKN047 11/09 Q1011 TEMPO 21012G22KT

TAF TAF LFJL
Valide du 24 à 12h jusqu'au 25 à 12h UTC


241100Z 2412/2512 22012KT 9999 BKN030
TEMPO 2412/2419 -RA BKN012
TEMPO 2419/2421 28012G22KT 4000 RA BKN012
TEMPO 2421/2503 -RA BKN012
BECMG 2503/2504 -RA BKN012
TEMPO 2504/2512 OVC006
Pas de NOTAMs connus pour ce terrain.



MET'MAP, la Météo Aéronautique d'un coup d'oeil ! - Copyright ORBIFLY Décembre 2007 - Disclaimer

ORBIFLY MET'MAP TEAM :

Programmation & Développement : Alexandra Zaïnal
Conception & Développement : Baudouin d'Aumeries
Co-Programmation & Développement : Marc-Olivier Méhu
Soutien technique & logistique : Manuel Goepfert

Contact : metmap@orbifly.com




SOURCES & CREDITS :

   NOAA